Time;durP1;ratioP1;P1;durP2;ratioP2;P2;SDS_P1;SDS_P2;PMS_P1;PMS_P2;Temp;Humidity;BMP_temperature;BMP_pressure;BME280_temperature;BME280_humidity;BME280_pressure;Samples;Min_cycle;Max_cycle;Signal;HPM_P1;HPM_P2
2021/04/21 00:02:24;;;;;;;51.33;20.30;;;;;;;10.20;100.00;100136.55;1521132;94;21214;-91
2021/04/21 00:04:53;;;;;;;41.70;19.17;;;;;;;10.26;100.00;100136.81;1521073;94;21263;-91
2021/04/21 00:07:21;;;;;;;45.38;21.10;;;;;;;10.24;100.00;100145.18;1521143;94;21593;-93
2021/04/21 00:09:51;;;;;;;48.17;21.02;;;;;;;10.25;100.00;100137.91;1589991;89;21196;-92
2021/04/21 00:12:18;;;;;;;46.95;21.35;;;;;;;10.25;100.00;100139.25;1604281;89;21171;-91
2021/04/21 00:14:51;;;;;;;47.83;22.30;;;;;;;10.20;100.00;100150.81;1597971;89;21221;-91
2021/04/21 00:17:20;;;;;;;52.08;22.73;;;;;;;10.20;100.00;100158.09;1604206;89;21735;-91
2021/04/21 00:19:47;;;;;;;58.23;25.27;;;;;;;10.17;100.00;100168.05;1604242;89;21200;-91
2021/04/21 00:22:17;;;;;;;57.95;26.35;;;;;;;10.10;100.00;100172.35;1597963;89;21228;-91
2021/04/21 00:24:46;;;;;;;58.28;24.98;;;;;;;10.11;100.00;100167.23;1604244;89;21353;-89
2021/04/21 00:27:16;;;;;;;62.03;26.82;;;;;;;10.07;100.00;100177.47;1604043;89;21169;-90
2021/04/21 00:29:47;;;;;;;63.48;26.65;;;;;;;10.00;100.00;100179.08;1604174;89;21332;-91
2021/04/21 00:32:15;;;;;;;69.80;29.15;;;;;;;9.98;100.00;100189.30;1604195;89;21264;-88
2021/04/21 00:34:43;;;;;;;71.20;28.90;;;;;;;10.18;100.00;100190.69;1604193;89;21240;-89
2021/04/21 00:37:10;;;;;;;62.83;26.70;;;;;;;10.20;100.00;100188.52;1588411;89;21884;-89
2021/04/21 00:39:41;;;;;;;69.03;28.17;;;;;;;10.22;100.00;100194.45;1585917;90;21206;-89
2021/04/21 00:42:27;;;;;;;66.42;28.67;;;;;;;10.10;100.00;100197.13;1585761;90;21191;-90
2021/04/21 00:45:02;;;;;;;67.10;27.65;;;;;;;10.11;100.00;100195.50;1586257;90;21703;-89
2021/04/21 00:47:42;;;;;;;66.65;27.80;;;;;;;10.06;100.00;100197.37;1624043;87;21167;-89
2021/04/21 00:50:40;;;;;;;63.98;27.15;;;;;;;9.97;100.00;100203.30;1626149;88;21366;-90
2021/04/21 00:53:17;;;;;;;66.82;27.40;;;;;;;9.92;100.00;100207.86;1605223;88;21205;-91
2021/04/21 00:56:09;;;;;;;70.72;28.52;;;;;;;9.92;100.00;100205.97;1629776;88;21170;-92
2021/04/21 00:59:07;;;;;;;65.30;28.40;;;;;;;10.03;100.00;100210.02;1623550;88;21186;-92
2021/04/21 01:01:37;;;;;;;67.62;27.95;;;;;;;9.91;100.00;100204.36;1629653;88;21186;-92
2021/04/21 01:04:04;;;;;;;63.55;26.48;;;;;;;9.86;100.00;100213.76;1629709;88;21670;-91
2021/04/21 01:06:41;;;;;;;66.45;27.52;;;;;;;9.82;100.00;100213.98;1622677;88;21583;-93
2021/04/21 01:09:08;;;;;;;71.85;27.98;;;;;;;9.95;100.00;100214.05;1629580;87;21157;-92
2021/04/21 01:11:43;;;;;;;66.07;27.50;;;;;;;9.88;100.00;100222.89;1623380;88;21820;-94
2021/04/21 01:14:17;;;;;;;64.60;26.70;;;;;;;9.89;100.00;100227.23;1600512;89;21205;-92
2021/04/21 01:16:46;;;;;;;68.60;26.87;;;;;;;9.88;100.00;100230.97;1620596;88;21458;-93
2021/04/21 01:19:53;;;;;;;63.70;26.68;;;;;;;9.83;100.00;100239.85;1600568;89;21125;-92
2021/04/21 01:22:48;;;;;;;67.85;26.95;;;;;;;9.99;100.00;100240.70;1600525;89;21252;-91
2021/04/21 01:25:36;;;;;;;61.02;25.35;;;;;;;9.85;100.00;100244.41;1600508;89;21661;-91
2021/04/21 01:28:05;;;;;;;54.90;23.95;;;;;;;9.89;100.00;100250.10;1597400;89;21741;-93
2021/04/21 01:30:36;;;;;;;55.70;23.57;;;;;;;9.84;100.00;100261.64;1579357;89;22182;-92
2021/04/21 01:33:07;;;;;;;49.40;22.42;;;;;;;9.85;100.00;100266.48;1600570;89;21210;-92
2021/04/21 01:35:34;;;;;;;54.85;23.45;;;;;;;9.87;100.00;100263.81;1600462;87;21245;-92
2021/04/21 01:38:03;;;;;;;55.75;23.57;;;;;;;9.87;100.00;100275.92;1614043;88;21256;-91
2021/04/21 01:40:36;;;;;;;59.58;23.85;;;;;;;9.90;100.00;100278.08;1625132;88;21668;-91
2021/04/21 01:43:10;;;;;;;54.20;22.37;;;;;;;9.83;100.00;100280.22;1614093;88;21815;-92
2021/04/21 01:45:39;;;;;;;51.05;22.50;;;;;;;9.77;100.00;100283.42;1625059;88;21227;-93
2021/04/21 01:48:11;;;;;;;49.77;22.00;;;;;;;9.68;100.00;100286.34;1614023;88;21641;-92
2021/04/21 01:50:37;;;;;;;52.67;21.48;;;;;;;9.68;100.00;100286.34;1572733;91;21149;-93
2021/04/21 01:53:45;;;;;;;49.13;21.62;;;;;;;9.75;100.00;100292.83;1572837;91;21122;-91
2021/04/21 01:56:22;;;;;;;52.35;20.75;;;;;;;9.70;100.00;100295.48;1581165;90;21207;-93
2021/04/21 01:59:06;;;;;;;49.55;20.50;;;;;;;9.77;100.00;100297.41;1584333;90;21243;-92
2021/04/21 02:01:55;;;;;;;46.30;20.25;;;;;;;9.73;100.00;100290.92;1584295;90;21259;-92
2021/04/21 02:05:13;;;;;;;47.70;20.32;;;;;;;9.69;100.00;100297.91;1583740;90;21287;-93
2021/04/21 02:07:53;;;;;;;43.85;17.85;;;;;;;9.69;100.00;100306.78;1584332;90;21223;-93
2021/04/21 02:10:52;;;;;;;43.15;18.77;;;;;;;9.59;100.00;100316.66;1584968;90;21200;-93
2021/04/21 02:13:35;;;;;;;44.88;19.32;;;;;;;9.47;100.00;100320.89;1519282;94;21250;-93
2021/04/21 02:16:28;;;;;;;43.15;19.17;;;;;;;9.46;100.00;100324.13;1512938;94;21154;-93
2021/04/21 02:19:14;;;;;;;47.13;19.12;;;;;;;9.42;100.00;100329.75;1526329;94;21705;-94
2021/04/21 02:21:57;;;;;;;47.40;18.75;;;;;;;9.28;100.00;100327.23;1513989;94;21210;-94
2021/04/21 02:24:58;;;;;;;48.83;18.77;;;;;;;9.33;100.00;100327.27;1515267;94;21231;-93
2021/04/21 02:27:43;;;;;;;42.88;19.07;;;;;;;9.27;100.00;100324.27;1526083;94;21216;-93
2021/04/21 02:30:24;;;;;;;45.85;19.52;;;;;;;9.34;100.00;100345.02;1513778;94;21325;-94
2021/04/21 02:33:18;;;;;;;43.80;18.50;;;;;;;9.17;100.00;100349.18;1515169;94;21304;-94
2021/04/21 02:35:58;;;;;;;47.25;19.50;;;;;;;9.27;100.00;100342.55;1526423;93;21318;-94
2021/04/21 02:38:44;;;;;;;42.50;18.80;;;;;;;9.32;100.00;100356.56;1458724;96;22949;-94
2021/04/21 02:41:15;;;;;;;44.83;19.85;;;;;;;9.19;100.00;100365.87;1458718;97;21323;-93
2021/04/21 02:44:25;;;;;;;39.65;18.23;;;;;;;9.21;100.00;100366.98;1481999;96;21235;-94
2021/04/21 02:47:08;;;;;;;46.00;18.60;;;;;;;9.23;100.00;100365.63;1477019;96;21251;-95
2021/04/21 02:50:09;;;;;;;38.60;17.10;;;;;;;9.10;100.00;100372.25;1482143;96;21316;-93
2021/04/21 02:53:01;;;;;;;44.05;18.48;;;;;;;9.27;100.00;100367.30;1459986;96;22088;-94
2021/04/21 02:55:39;;;;;;;41.55;16.60;;;;;;;9.09;100.00;100369.83;1451781;97;21492;-93
2021/04/21 02:58:28;;;;;;;41.85;16.95;;;;;;;9.05;100.00;100370.85;1455422;97;21299;-92
2021/04/21 03:01:31;;;;;;;37.63;15.48;;;;;;;9.05;100.00;100382.95;1451141;98;21315;-95
2021/04/21 03:04:18;;;;;;;39.10;16.52;;;;;;;9.11;100.00;100387.84;1452775;98;21264;-93
2021/04/21 03:06:48;;;;;;;38.02;16.32;;;;;;;8.98;100.00;100400.36;1460901;97;21381;-94
2021/04/21 03:09:48;;;;;;;32.80;15.32;;;;;;;9.02;100.00;100406.30;1454177;97;21573;-95
2021/04/21 03:12:18;;;;;;;32.85;14.98;;;;;;;8.94;100.00;100409.48;1475344;97;21236;-94
2021/04/21 03:14:47;;;;;;;29.35;13.08;;;;;;;9.05;100.00;100415.74;1476582;97;21349;-94
2021/04/21 03:17:16;;;;;;;28.90;13.38;;;;;;;9.03;100.00;100421.39;1456744;97;21280;-95
2021/04/21 03:19:59;;;;;;;31.75;13.40;;;;;;;8.98;100.00;100428.05;1476649;97;21294;-94
2021/04/21 03:22:28;;;;;;;27.58;12.03;;;;;;;9.00;100.00;100431.81;1476761;97;21293;-95
2021/04/21 03:25:06;;;;;;;25.57;12.33;;;;;;;9.06;100.00;100435.66;1475804;97;21357;-94
2021/04/21 03:27:34;;;;;;;28.23;12.20;;;;;;;9.08;100.00;100440.23;1495792;95;21236;-95
2021/04/21 03:30:11;;;;;;;25.90;11.63;;;;;;;9.13;100.00;100447.55;1472909;96;21235;-93
2021/04/21 03:32:40;;;;;;;25.52;12.07;;;;;;;9.09;100.00;100452.62;1472781;96;21313;-95
2021/04/21 03:35:09;;;;;;;24.10;11.30;;;;;;;9.22;100.00;100450.59;1507764;94;21238;-94
2021/04/21 03:38:05;;;;;;;26.20;11.12;;;;;;;9.24;100.00;100460.03;1514446;94;21731;-94
2021/04/21 03:40:32;;;;;;;24.70;11.05;;;;;;;9.40;100.00;100454.80;1519913;94;21243;-92
2021/04/21 03:43:00;;;;;;;22.00;10.63;;;;;;;9.41;100.00;100457.24;1541518;93;21264;-93
2021/04/21 03:45:27;;;;;;;19.87;9.90;;;;;;;9.45;100.00;100462.91;1541581;93;21356;-94
2021/04/21 03:47:55;;;;;;;23.83;10.43;;;;;;;9.61;100.00;100467.88;1541535;93;21272;-93
2021/04/21 03:50:23;;;;;;;19.85;9.38;;;;;;;9.65;100.00;100469.82;1496138;95;21662;-94
2021/04/21 03:53:08;;;;;;;19.25;9.08;;;;;;;9.84;100.00;100472.91;1496011;95;21167;-93
2021/04/21 03:55:36;;;;;;;19.57;9.63;;;;;;;10.14;100.00;100476.89;1496167;95;21308;-94
2021/04/21 03:58:12;;;;;;;18.65;8.63;;;;;;;10.24;100.00;100484.50;1477751;95;21286;-94
2021/04/21 04:00:41;;;;;;;18.90;9.20;;;;;;;10.37;100.00;100488.64;1496049;95;21252;-93
2021/04/21 04:03:16;;;;;;;20.55;9.43;;;;;;;10.69;100.00;100491.77;1495988;95;21633;-93
2021/04/21 04:05:54;;;;;;;19.32;8.80;;;;;;;11.14;100.00;100492.45;1503794;94;21402;-94
2021/04/21 04:08:24;;;;;;;18.65;8.58;;;;;;;11.53;100.00;100503.31;1565339;91;21225;-94
2021/04/21 04:10:53;;;;;;;15.65;8.48;;;;;;;11.77;100.00;100497.67;1566850;91;21305;-94
2021/04/21 04:13:20;;;;;;;18.48;8.70;;;;;;;12.15;100.00;100506.88;1544170;92;21361;-94
2021/04/21 04:15:48;;;;;;;15.38;8.58;;;;;;;13.18;100.00;100510.85;1566952;91;21712;-94
2021/04/21 04:18:16;;;;;;;15.93;8.10;;;;;;;13.51;100.00;100509.87;1570586;91;21633;-94
2021/04/21 04:20:44;;;;;;;14.25;8.13;;;;;;;13.94;100.00;100508.70;1570818;91;21709;-93
2021/04/21 04:23:12;;;;;;;13.75;8.33;;;;;;;14.22;100.00;100520.66;1541760;93;21270;-94
2021/04/21 04:25:48;;;;;;;18.85;7.75;;;;;;;14.84;100.00;100524.91;1525157;94;21261;-93
2021/04/21 04:28:14;;;;;;;14.47;7.53;;;;;;;14.94;100.00;100529.67;1526845;88;21754;-94
2021/04/21 04:30:42;;;;;;;13.78;7.42;;;;;;;15.17;100.00;100532.61;1630800;87;21205;-96
2021/04/21 04:33:10;;;;;;;15.13;7.62;;;;;;;15.15;100.00;100538.35;1630835;87;21145;-94
2021/04/21 04:35:37;;;;;;;13.55;6.90;;;;;;;14.95;100.00;100542.68;1630678;87;21859;-95
2021/04/21 04:38:04;;;;;;;16.20;7.47;;;;;;;14.92;100.00;100549.49;1648878;86;21196;-94
2021/04/21 04:40:32;;;;;;;11.97;6.90;;;;;;;14.93;100.00;100555.72;1657115;86;21257;-94
2021/04/21 04:42:59;;;;;;;12.65;7.15;;;;;;;15.49;100.00;100556.34;1657249;85;21190;-95
2021/04/21 04:45:29;;;;;;;13.08;6.72;;;;;;;15.34;100.00;100551.94;1657183;86;21598;-95
2021/04/21 04:47:59;;;;;;;12.35;7.03;;;;;;;15.86;100.00;100558.83;1657001;86;21189;-95
2021/04/21 04:50:25;;;;;;;13.68;7.47;;;;;;;16.27;100.00;100567.11;1656941;86;21205;-94
2021/04/21 04:52:55;;;;;;;12.75;6.78;;;;;;;16.57;100.00;100571.19;1657084;86;22267;-96
2021/04/21 04:55:24;;;;;;;13.85;7.58;;;;;;;17.14;100.00;100565.47;1657079;86;21206;-95
2021/04/21 04:57:53;;;;;;;12.70;7.58;;;;;;;17.32;100.00;100573.27;1657146;86;21579;-96
2021/04/21 05:00:24;;;;;;;13.78;7.62;;;;;;;18.39;100.00;100574.84;1657509;86;21507;-89
2021/04/21 05:03:15;;;;;;;11.75;7.60;;;;;;;19.12;100.00;100579.17;1656933;86;21205;-88
2021/04/21 05:05:43;;;;;;;11.03;7.12;;;;;;;19.43;92.65;100586.72;1656980;86;21582;-89
2021/04/21 05:08:17;;;;;;;11.22;7.03;;;;;;;20.40;98.15;100588.30;1645681;86;21175;-91
2021/04/21 05:11:08;;;;;;;12.95;7.35;;;;;;;20.65;85.38;100593.50;1654656;85;21193;-95
2021/04/21 05:13:51;;;;;;;10.48;6.97;;;;;;;20.87;75.14;100602.02;1659240;85;21440;-96
2021/04/21 05:16:49;;;;;;;12.53;7.07;;;;;;;21.02;67.20;100602.03;1603959;89;21217;-96
2021/04/21 05:19:49;;;;;;;11.97;6.78;;;;;;;21.50;65.41;100600.80;1604970;86;21113;-96
2021/04/21 05:22:47;;;;;;;10.32;6.58;;;;;;;22.42;65.94;100597.93;1604929;88;21143;-96
2021/04/21 05:25:38;;;;;;;12.37;7.10;;;;;;;22.24;59.34;100595.14;1599811;86;21169;-96
2021/04/21 05:28:16;;;;;;;11.08;6.58;;;;;;;21.61;67.62;100606.70;1601331;88;21909;-95
2021/04/21 05:30:50;;;;;;;11.35;6.05;;;;;;;22.13;65.93;100607.08;1601209;88;21236;-96
2021/04/21 05:34:10;;;;;;;11.60;6.45;;;;;;;21.51;55.79;100610.08;1598359;88;21197;-95
2021/04/21 05:36:47;;;;;;;10.65;6.17;;;;;;;22.04;58.71;100612.42;1529913;92;21313;-96
2021/04/21 05:39:30;;;;;;;9.28;6.70;;;;;;;21.90;58.21;100618.98;1527548;93;21268;-96
2021/04/21 05:42:54;;;;;;;11.63;6.40;;;;;;;21.96;59.29;100623.70;1577226;90;21220;-96
2021/04/21 05:46:04;;;;;;;9.20;6.45;;;;;;;22.67;55.01;100628.98;1579289;90;21745;-95
2021/04/21 05:49:01;;;;;;;8.55;6.08;;;;;;;22.29;57.05;100633.34;1579171;90;21188;-96
2021/04/21 05:51:53;;;;;;;12.85;7.25;;;;;;;20.90;57.44;100652.05;1579210;90;21325;-94
2021/04/21 05:55:14;;;;;;;13.90;6.85;;;;;;;22.29;62.52;100641.58;1579286;90;21318;-96
2021/04/21 05:58:21;;;;;;;10.28;6.28;;;;;;;24.46;56.69;100633.10;1579192;90;21421;-96
2021/04/21 06:01:22;;;;;;;10.15;6.03;;;;;;;24.83;46.94;100645.88;1553240;92;21217;-93
2021/04/21 06:03:53;;;;;;;8.90;6.40;;;;;;;25.33;50.45;100643.77;1570101;91;21289;-95
2021/04/21 06:06:19;;;;;;;9.35;6.42;;;;;;;26.33;49.67;100642.94;1578704;90;21753;-94
2021/04/21 06:08:46;;;;;;;12.50;6.40;;;;;;;27.56;43.69;100643.22;1578755;90;21177;-93
2021/04/21 06:11:26;;;;;;;10.28;7.15;;;;;;;27.85;44.59;100633.34;1633667;86;21469;-92
2021/04/21 06:13:55;;;;;;;12.78;7.47;;;;;;;27.34;41.97;100655.38;1657199;86;21146;-92
2021/04/21 06:16:24;;;;;;;14.78;7.55;;;;;;;28.41;39.41;100645.47;1656755;86;21209;-91
2021/04/21 06:19:06;;;;;;;13.30;8.05;;;;;;;28.78;39.87;100653.80;1657129;86;21190;-92
2021/04/21 06:21:37;;;;;;;;;;;;;;;28.58;39.92;100656.57;1659632;86;21522;-92
2021/04/21 06:24:17;;;;;;;18.15;9.15;;;;;;;29.53;37.58;100659.95;1657108;86;21265;-94
2021/04/21 06:26:43;;;;;;;18.75;9.43;;;;;;;29.13;35.25;100660.86;1601136;89;21252;-92
2021/04/21 06:29:10;;;;;;;15.60;9.10;;;;;;;29.17;37.77;100663.05;1601349;89;21661;-92
2021/04/21 06:31:49;;;;;;;12.93;9.23;;;;;;;28.89;36.12;100666.38;1601403;89;21184;-92
2021/04/21 06:34:14;;;;;;;14.83;9.50;;;;;;;29.31;36.49;100669.31;1601227;89;21185;-92
2021/04/21 06:36:45;;;;;;;13.98;8.90;;;;;;;30.44;35.42;100675.84;1601336;88;21782;-91
2021/04/21 06:39:16;;;;;;;15.68;8.98;;;;;;;30.26;34.83;100682.15;1532594;93;21265;-91
2021/04/21 06:41:44;;;;;;;14.65;9.73;;;;;;;29.57;34.61;100676.03;1533463;93;21234;-91
2021/04/21 06:44:14;;;;;;;17.35;10.28;;;;;;;30.86;33.24;100684.90;1533501;93;21252;-91
2021/04/21 06:46:41;;;;;;;16.77;10.82;;;;;;;31.35;30.57;100688.08;1533755;93;21310;-90
2021/04/21 06:49:07;;;;;;;20.43;12.80;;;;;;;32.06;29.82;100688.52;1533525;93;21667;-90
2021/04/21 06:51:35;;;;;;;22.17;12.60;;;;;;;30.84;34.00;100690.66;1533410;93;21020;-91
2021/04/21 06:54:05;;;;;;;22.42;13.30;;;;;;;32.74;29.17;100693.77;1533516;93;21285;-90
2021/04/21 06:56:36;;;;;;;21.35;12.78;;;;;;;31.84;28.85;100690.56;1530849;93;21551;-91
2021/04/21 06:59:04;;;;;;;17.92;12.03;;;;;;;31.87;30.38;100695.34;1533434;93;21164;-91
2021/04/21 07:01:33;;;;;;;20.85;12.47;;;;;;;33.11;28.97;100703.46;1533387;93;21201;-90
2021/04/21 07:04:14;;;;;;;18.07;10.80;;;;;;;32.78;29.00;100706.47;1530468;93;21159;-90
2021/04/21 07:06:43;;;;;;;20.85;11.88;;;;;;;33.40;27.31;100710.38;1533706;93;21653;-90
2021/04/21 07:09:19;;;;;;;24.92;14.13;;;;;;;32.47;27.41;100713.84;1533610;93;21186;-90
2021/04/21 07:11:49;;;;;;;20.62;13.85;;;;;;;33.46;26.45;100710.72;1541530;93;21740;-90
2021/04/21 07:14:19;;;;;;;21.48;12.63;;;;;;;32.15;28.33;100714.56;1541514;93;21229;-90
2021/04/21 07:16:45;;;;;;;20.75;12.55;;;;;;;31.85;29.80;100709.66;1541458;93;21243;-90
2021/04/21 07:19:14;;;;;;;26.15;15.32;;;;;;;32.60;28.46;100713.39;1538114;93;21225;-90
2021/04/21 07:21:42;;;;;;;23.07;14.95;;;;;;;33.13;26.42;100713.62;1541449;93;21209;-90
2021/04/21 07:24:12;;;;;;;22.25;14.63;;;;;;;32.83;26.55;100715.03;1541636;93;21189;-90
2021/04/21 07:26:42;;;;;;;32.42;17.75;;;;;;;32.52;27.09;100716.20;1500108;95;21327;-90
2021/04/21 07:29:18;;;;;;;28.98;18.25;;;;;;;31.28;29.17;100721.49;1499077;95;21233;-90
2021/04/21 07:31:44;;;;;;;34.60;20.12;;;;;;;32.49;27.68;100721.20;1463730;97;21306;-89
2021/04/21 07:34:27;;;;;;;35.13;20.68;;;;;;;32.56;27.13;100726.77;1472564;97;21539;-89
2021/04/21 07:36:53;;;;;;;32.67;19.75;;;;;;;33.32;25.06;100716.45;1468537;97;21249;-90
2021/04/21 07:39:19;;;;;;;33.58;19.32;;;;;;;32.30;24.95;100723.09;1461574;97;21256;-90
2021/04/21 07:41:48;;;;;;;33.18;20.48;;;;;;;31.87;26.46;100737.15;1462530;96;21113;-89
2021/04/21 07:44:49;;;;;;;31.90;19.82;;;;;;;30.90;28.04;100737.18;1454264;98;21282;-89
2021/04/21 07:47:11;;;;;;;29.02;16.15;;;;;;;32.47;26.88;100731.19;1466166;97;21225;-90
2021/04/21 07:49:39;;;;;;;;;;;;;;;32.50;26.61;100731.19;1468515;97;21259;-89
2021/04/21 07:52:07;;;;;;;24.67;15.32;;;;;;;31.72;27.56;100730.03;1466250;97;21032;-89
2021/04/21 07:54:36;;;;;;;24.72;15.25;;;;;;;32.10;27.99;100734.72;1466447;97;21161;-89
2021/04/21 07:57:11;;;;;;;23.00;13.50;;;;;;;30.99;27.99;100745.14;1466240;97;21185;-89
2021/04/21 07:59:41;;;;;;;17.50;12.28;;;;;;;30.73;28.86;100738.70;1466265;97;21719;-89
2021/04/21 08:02:14;;;;;;;21.05;12.35;;;;;;;31.90;26.26;100735.77;1466342;97;21248;-91
2021/04/21 08:04:56;;;;;;;18.35;11.35;;;;;;;32.10;25.88;100727.74;1466399;97;21898;-88
2021/04/21 08:07:41;;;;;;;18.32;11.45;;;;;;;30.83;27.42;100749.70;1449617;97;21074;-90
2021/04/21 08:10:27;;;;;;;16.80;11.05;;;;;;;31.55;27.07;100738.00;1535525;93;21314;-89
2021/04/21 08:12:56;;;;;;;16.73;10.50;;;;;;;32.25;26.99;100740.23;1535619;93;21284;-90
2021/04/21 08:15:35;;;;;;;12.20;9.30;;;;;;;32.58;24.35;100741.69;1535596;93;21205;-89
2021/04/21 08:18:08;;;;;;;13.48;9.28;;;;;;;33.08;23.59;100742.78;1535547;93;21423;-90
2021/04/21 08:20:42;;;;;;;14.75;8.93;;;;;;;33.02;24.42;100746.61;1535467;93;21812;-90
2021/04/21 08:23:10;;;;;;;11.30;8.05;;;;;;;32.08;25.96;100744.67;1545082;92;21282;-89
2021/04/21 08:25:36;;;;;;;11.97;7.90;;;;;;;31.97;25.96;100754.46;1546987;92;21256;-90
2021/04/21 08:28:04;;;;;;;8.35;6.62;;;;;;;32.27;23.96;100747.61;1562316;89;21244;-90
2021/04/21 08:30:31;;;;;;;7.87;6.22;;;;;;;32.73;23.10;100752.95;1618411;88;21189;-89
2021/04/21 08:32:58;;;;;;;9.23;6.08;;;;;;;32.94;23.54;100749.23;1614316;88;21238;-89
2021/04/21 08:35:25;;;;;;;13.72;6.80;;;;;;;30.94;24.96;100752.48;1600681;89;21692;-90
2021/04/21 08:37:51;;;;;;;11.22;7.85;;;;;;;31.63;25.31;100754.12;1627124;87;21685;-89
2021/04/21 08:40:21;;;;;;;12.85;8.28;;;;;;;32.17;25.61;100749.83;1613742;88;21623;-92
2021/04/21 08:42:58;;;;;;;11.73;8.28;;;;;;;31.84;25.09;100757.47;1624791;88;21196;-90
2021/04/21 08:45:24;;;;;;;9.78;6.87;;;;;;;31.52;26.64;100756.91;1622365;88;21217;-89
2021/04/21 08:47:50;;;;;;;7.37;5.72;;;;;;;31.58;26.01;100749.73;1621841;88;21329;-90
2021/04/21 08:50:16;;;;;;;13.35;6.58;;;;;;;32.39;24.01;100747.76;1624941;87;21193;-91
2021/04/21 08:52:56;;;;;;;10.50;6.25;;;;;;;31.53;22.79;100757.10;1603306;88;21254;-91
2021/04/21 08:55:23;;;;;;;13.70;7.45;;;;;;;29.91;24.61;100762.58;1616114;87;21808;-90
2021/04/21 08:57:49;;;;;;;15.35;8.20;;;;;;;29.52;25.58;100762.48;1615584;88;21267;-90
2021/04/21 09:00:20;;;;;;;13.03;6.78;;;;;;;30.10;26.01;100764.48;1625328;87;21192;-90
2021/04/21 09:02:47;;;;;;;11.80;7.35;;;;;;;29.31;25.41;100767.28;1643374;87;21180;-91
2021/04/21 09:05:17;;;;;;;10.85;6.67;;;;;;;27.72;28.86;100771.83;1657463;85;21157;-90
2021/04/21 09:07:45;;;;;;;11.73;7.20;;;;;;;26.76;30.48;100773.69;1656932;85;21281;-91
2021/04/21 09:10:14;;;;;;;11.65;6.95;;;;;;;26.28;31.24;100776.06;1650944;86;21174;-92
2021/04/21 09:12:40;;;;;;;12.07;6.42;;;;;;;27.67;29.92;100770.17;1626340;85;21159;-91
2021/04/21 09:15:10;;;;;;;12.35;7.10;;;;;;;28.19;28.76;100767.78;1656492;85;21245;-90
2021/04/21 09:17:51;;;;;;;12.68;7.83;;;;;;;28.02;28.91;100762.20;1652610;86;21202;-91
2021/04/21 09:20:21;;;;;;;12.28;7.65;;;;;;;29.49;26.95;100754.92;1621351;88;22296;-90
2021/04/21 09:23:15;;;;;;;12.80;7.12;;;;;;;30.45;24.75;100757.52;1621382;88;21526;-92
2021/04/21 09:25:52;;;;;;;18.00;8.25;;;;;;;28.79;28.15;100760.80;1621523;88;21196;-91
2021/04/21 09:28:21;;;;;;;12.82;7.62;;;;;;;28.13;28.64;100755.44;1621254;88;21241;-91
2021/04/21 09:30:56;;;;;;;13.18;7.78;;;;;;;27.64;27.85;100762.02;1621705;88;21578;-90
2021/04/21 09:33:27;;;;;;;14.28;7.85;;;;;;;26.47;28.88;100768.38;1618945;88;22177;-91
2021/04/21 09:35:53;;;;;;;14.33;7.10;;;;;;;25.04;31.47;100770.49;1620406;87;21194;-91
2021/04/21 09:38:27;;;;;;;15.53;7.83;;;;;;;24.34;32.78;100773.63;1621020;87;21906;-91
2021/04/21 09:41:01;;;;;;;14.85;7.83;;;;;;;24.11;33.67;100773.33;1616777;88;21242;-91
2021/04/21 09:43:34;;;;;;;15.32;7.87;;;;;;;23.32;33.45;100768.63;1584246;89;21174;-91
2021/04/21 09:46:17;;;;;;;14.43;8.20;;;;;;;22.50;35.06;100769.28;1603829;88;22071;-90
2021/04/21 09:48:47;;;;;;;14.18;8.10;;;;;;;22.12;35.81;100777.05;1560415;90;21238;-92
2021/04/21 09:51:22;;;;;;;13.40;6.97;;;;;;;21.74;36.86;100775.16;1548365;91;21567;-91
2021/04/21 09:53:50;;;;;;;14.87;6.85;;;;;;;21.03;36.71;100774.89;1531647;93;21227;-91
2021/04/21 09:56:25;;;;;;;14.10;7.53;;;;;;;21.09;37.07;100768.14;1547469;91;21218;-92
2021/04/21 09:58:57;;;;;;;20.75;8.48;;;;;;;21.42;39.29;100777.17;1540318;92;21264;-91
2021/04/21 10:01:34;;;;;;;13.95;7.60;;;;;;;22.48;37.01;100765.26;1556478;92;21627;-90
2021/04/21 10:04:15;;;;;;;15.05;7.28;;;;;;;23.04;35.55;100763.77;1556739;92;21619;-91
2021/04/21 10:06:50;;;;;;;15.80;7.62;;;;;;;23.31;33.54;100772.53;1556401;92;21246;-94
2021/04/21 10:09:38;;;;;;;15.28;7.80;;;;;;;22.74;35.34;100771.91;1563896;90;21221;-92
2021/04/21 10:12:19;;;;;;;11.55;7.20;;;;;;;22.35;35.45;100779.48;1591297;90;21282;-92
2021/04/21 10:15:02;;;;;;;14.58;6.92;;;;;;;22.33;35.01;100780.41;1548788;90;21239;-91
2021/04/21 10:17:35;;;;;;;15.05;7.40;;;;;;;21.35;37.55;100785.05;1580630;90;21217;-92
2021/04/21 10:20:05;;;;;;;13.30;6.95;;;;;;;20.63;39.26;100788.82;1591840;90;21235;-91
2021/04/21 10:22:31;;;;;;;11.93;6.62;;;;;;;20.58;40.19;100784.87;1518846;94;21277;-92
2021/04/21 10:24:59;;;;;;;12.73;6.10;;;;;;;20.64;39.06;100784.95;1521688;94;21270;-91
2021/04/21 10:27:26;;;;;;;10.93;6.33;;;;;;;20.68;39.54;100783.19;1521692;94;21234;-91
2021/04/21 10:29:53;;;;;;;17.75;6.78;;;;;;;21.32;38.12;100783.77;1523691;93;21311;-91
2021/04/21 10:32:20;;;;;;;14.13;7.47;;;;;;;21.12;39.22;100783.93;1545775;91;21405;-91
2021/04/21 10:34:47;;;;;;;15.15;7.67;;;;;;;21.26;39.38;100779.59;1545377;91;21267;-92
2021/04/21 10:37:16;;;;;;;12.60;6.42;;;;;;;21.04;41.39;100787.48;1545873;91;21210;-91
2021/04/21 10:39:46;;;;;;;13.05;6.35;;;;;;;22.00;39.08;100786.00;1550841;91;21262;-90
2021/04/21 10:42:17;;;;;;;15.83;7.08;;;;;;;21.92;37.81;100790.97;1548559;91;21241;-91
2021/04/21 10:44:48;;;;;;;12.07;6.67;;;;;;;21.68;39.00;100788.03;1570619;89;21310;-90
2021/04/21 10:47:17;;;;;;;12.35;6.33;;;;;;;21.80;38.27;100786.76;1544804;92;21222;-90
2021/04/21 10:49:56;;;;;;;14.07;6.50;;;;;;;21.57;38.70;100788.16;1596109;89;21955;-88
2021/04/21 10:52:31;;;;;;;10.75;5.70;;;;;;;20.92;39.41;100790.89;1579237;90;21213;-88
2021/04/21 10:55:09;;;;;;;11.97;5.75;;;;;;;20.98;40.32;100790.96;1566680;90;21250;-87
2021/04/21 10:57:49;;;;;;;11.85;5.25;;;;;;;21.11;40.47;100782.30;1579180;90;21209;-88
2021/04/21 11:00:31;;;;;;;11.33;4.78;;;;;;;20.62;40.71;100779.80;1506091;95;21207;-88
2021/04/21 11:03:01;;;;;;;13.60;5.25;;;;;;;21.19;39.42;100781.48;1508300;95;21230;-91
2021/04/21 11:05:44;;;;;;;9.10;5.20;;;;;;;20.74;40.71;100782.46;1507900;95;21286;-90
2021/04/21 11:08:18;;;;;;;8.38;4.67;;;;;;;21.50;38.73;100778.51;1506701;95;21439;-92
2021/04/21 11:11:05;;;;;;;14.50;5.35;;;;;;;21.74;39.19;100773.80;1486242;96;21383;-92
2021/04/21 11:13:42;;;;;;;8.03;4.87;;;;;;;21.78;38.83;100782.96;1482529;96;21246;-92
2021/04/21 11:16:33;;;;;;;12.37;5.58;;;;;;;21.60;38.26;100784.76;1490042;95;21337;-90
2021/04/21 11:19:24;;;;;;;10.28;5.47;;;;;;;21.97;37.81;100792.16;1476288;96;21292;-90
2021/04/21 11:22:27;;;;;;;8.55;4.90;;;;;;;21.51;37.30;100786.16;1443675;98;21313;-90
2021/04/21 11:25:29;;;;;;;11.00;4.83;;;;;;;21.38;38.50;100785.80;1486844;95;21555;-89
2021/04/21 11:27:58;;;;;;;9.80;5.37;;;;;;;20.59;39.72;100797.45;1467230;96;21261;-88
2021/04/21 11:30:39;;;;;;;12.65;6.10;;;;;;;20.40;39.88;100787.57;1487282;96;21286;-88
2021/04/21 11:33:05;;;;;;;14.63;5.95;;;;;;;19.89;39.92;100798.68;1487013;95;21269;-89
2021/04/21 11:35:32;;;;;;;13.55;6.30;;;;;;;19.92;40.17;100796.67;1468951;96;21060;-89
2021/04/21 11:37:58;;;;;;;13.25;6.40;;;;;;;19.78;41.49;100793.81;1515927;93;22663;-89
2021/04/21 11:40:30;;;;;;;12.68;5.90;;;;;;;20.23;40.56;100792.22;1522037;92;21247;-89
2021/04/21 11:43:18;;;;;;;13.80;7.08;;;;;;;20.10;41.36;100789.87;1519351;93;21269;-89
2021/04/21 11:45:44;;;;;;;16.73;7.37;;;;;;;19.95;40.78;100796.60;1514182;93;21265;-88
2021/04/21 11:48:16;;;;;;;20.00;7.15;;;;;;;19.51;42.47;100793.68;1505794;92;21200;-88
2021/04/21 11:53:19;;;;;;;10.98;6.10;;;;;;;19.34;42.58;100802.36;1526412;93;21306;-88
2021/04/21 11:55:52;;;;;;;11.85;5.45;;;;;;;19.07;44.37;100804.14;1526524;93;21190;-86
2021/04/21 11:58:34;;;;;;;14.53;5.87;;;;;;;18.94;45.71;100799.53;1528704;93;21256;-86